sensor_id;sensor_type;location;lat;lon;timestamp;temperature;humidity
80706;DHT22;70229;48.010;7.852;2024-01-11T12:13:17;-0.80;99.90
80706;DHT22;70229;48.010;7.852;2024-01-11T12:15:43;-0.80;99.90
80706;DHT22;70229;48.010;7.852;2024-01-11T12:18:10;-0.50;99.90
80706;DHT22;70229;48.010;7.852;2024-01-11T12:20:37;-0.60;99.90
80706;DHT22;70229;48.010;7.852;2024-01-11T12:23:05;0.10;99.90
80706;DHT22;70229;48.010;7.852;2024-01-11T12:25:31;-0.60;99.90
80706;DHT22;70229;48.010;7.852;2024-01-11T12:27:57;-0.60;99.90
80706;DHT22;70229;48.010;7.852;2024-01-11T12:30:23;-0.90;99.90
80706;DHT22;70229;48.010;7.852;2024-01-11T12:32:50;-0.80;99.90
80706;DHT22;70229;48.010;7.852;2024-01-11T12:35:16;-0.80;99.90
80706;DHT22;70229;48.010;7.852;2024-01-11T13:37:15;0.00;99.90
80706;DHT22;70229;48.010;7.852;2024-01-11T13:39:41;-0.30;99.90
80706;DHT22;70229;48.010;7.852;2024-01-11T13:42:06;-0.30;99.90
80706;DHT22;70229;48.010;7.852;2024-01-11T13:44:34;-0.20;99.90
80706;DHT22;70229;48.010;7.852;2024-01-11T13:47:00;-0.40;99.90
80706;DHT22;70229;48.010;7.852;2024-01-11T14:51:28;-0.70;99.90
80706;DHT22;70229;48.010;7.852;2024-01-11T14:53:56;-0.80;99.90
80706;DHT22;70229;48.010;7.852;2024-01-11T14:56:22;-0.80;99.90
80706;DHT22;70229;48.010;7.852;2024-01-11T14:58:47;-0.70;99.90
80706;DHT22;70229;48.010;7.852;2024-01-11T15:01:13;-0.70;99.90
80706;DHT22;70229;48.010;7.852;2024-01-11T15:03:39;-0.70;99.90
80706;DHT22;70229;48.010;7.852;2024-01-11T16:05:41;-1.40;99.90
80706;DHT22;70229;48.010;7.852;2024-01-11T16:08:09;-1.40;99.90
80706;DHT22;70229;48.010;7.852;2024-01-11T16:10:34;-1.40;99.90
80706;DHT22;70229;48.010;7.852;2024-01-11T16:13:00;-1.50;99.90
80706;DHT22;70229;48.010;7.852;2024-01-11T16:15:26;-1.60;99.90
80706;DHT22;70229;48.010;7.852;2024-01-11T16:17:51;-1.60;99.90
80706;DHT22;70229;48.010;7.852;2024-01-11T16:20:17;-1.60;99.90
80706;DHT22;70229;48.010;7.852;2024-01-11T22:33:25;-3.30;99.90
80706;DHT22;70229;48.010;7.852;2024-01-11T22:35:52;-3.50;99.90
80706;DHT22;70229;48.010;7.852;2024-01-11T22:38:18;-3.80;99.90
80706;DHT22;70229;48.010;7.852;2024-01-11T22:40:44;-3.30;99.90
80706;DHT22;70229;48.010;7.852;2024-01-11T22:43:10;-3.10;99.90
80706;DHT22;70229;48.010;7.852;2024-01-11T22:45:36;-3.60;99.90
80706;DHT22;70229;48.010;7.852;2024-01-11T22:48:02;-3.40;99.90
80706;DHT22;70229;48.010;7.852;2024-01-11T22:50:28;-3.40;99.90
80706;DHT22;70229;48.010;7.852;2024-01-11T22:52:54;-2.00;99.90
80706;DHT22;70229;48.010;7.852;2024-01-11T22:55:22;-2.70;99.90
80706;DHT22;70229;48.010;7.852;2024-01-11T22:57:48;-3.30;99.90
80706;DHT22;70229;48.010;7.852;2024-01-11T23:00:14;-1.90;99.90
80706;DHT22;70229;48.010;7.852;2024-01-11T23:02:48;-3.40;99.90
80706;DHT22;70229;48.010;7.852;2024-01-11T23:05:14;-2.10;99.90
80706;DHT22;70229;48.010;7.852;2024-01-11T23:07:41;-3.40;99.90
80706;DHT22;70229;48.010;7.852;2024-01-11T23:10:09;-2.30;99.90
80706;DHT22;70229;48.010;7.852;2024-01-11T23:12:41;-2.60;99.90
80706;DHT22;70229;48.010;7.852;2024-01-11T23:15:09;-3.40;99.90
80706;DHT22;70229;48.010;7.852;2024-01-11T23:17:35;-3.40;99.90
80706;DHT22;70229;48.010;7.852;2024-01-11T23:20:02;-2.80;99.90
80706;DHT22;70229;48.010;7.852;2024-01-11T23:22:30;-3.60;99.90
80706;DHT22;70229;48.010;7.852;2024-01-11T23:24:56;-3.20;99.90
80706;DHT22;70229;48.010;7.852;2024-01-11T23:27:22;-3.30;99.90
80706;DHT22;70229;48.010;7.852;2024-01-11T23:29:51;-3.80;99.90
80706;DHT22;70229;48.010;7.852;2024-01-11T23:32:20;-2.80;99.90
80706;DHT22;70229;48.010;7.852;2024-01-11T23:34:46;-3.30;99.90
80706;DHT22;70229;48.010;7.852;2024-01-11T23:37:12;-3.70;99.90
80706;DHT22;70229;48.010;7.852;2024-01-11T23:39:38;-3.60;99.90
80706;DHT22;70229;48.010;7.852;2024-01-11T23:42:04;-3.10;99.90
80706;DHT22;70229;48.010;7.852;2024-01-11T23:44:32;-3.70;99.90
80706;DHT22;70229;48.010;7.852;2024-01-11T23:46:58;-3.30;99.90
80706;DHT22;70229;48.010;7.852;2024-01-11T23:49:24;-2.90;99.90
80706;DHT22;70229;48.010;7.852;2024-01-11T23:51:50;-3.60;99.90
80706;DHT22;70229;48.010;7.852;2024-01-11T23:54:16;-2.60;99.90
80706;DHT22;70229;48.010;7.852;2024-01-11T23:56:42;-3.80;99.90
80706;DHT22;70229;48.010;7.852;2024-01-11T23:59:08;-3.70;99.90
